createdAt,value
2019-06-20T00:00:57.185Z,19.59
2019-06-20T00:01:57.132Z,19.62
2019-06-20T00:02:57.172Z,19.59
2019-06-20T00:03:57.352Z,19.68
2019-06-20T00:06:57.329Z,19.59
2019-06-20T00:07:57.667Z,19.48
2019-06-20T00:08:57.639Z,19.54
2019-06-20T00:09:57.363Z,19.54
2019-06-20T00:10:57.257Z,19.55
2019-06-20T00:11:57.284Z,19.56
2019-06-20T00:13:00.681Z,19.46
2019-06-20T00:13:57.320Z,19.48
2019-06-20T00:14:57.370Z,19.44
2019-06-20T00:15:57.320Z,19.46
2019-06-20T00:16:59.507Z,19.43
2019-06-20T00:17:57.358Z,19.33
2019-06-20T00:18:57.397Z,19.33
2019-06-20T00:19:57.412Z,19.43
2019-06-20T00:20:57.397Z,19.46
2019-06-20T00:21:57.549Z,19.44
2019-06-20T00:22:57.561Z,19.33
2019-06-20T00:23:57.583Z,19.40
2019-06-20T00:24:57.749Z,19.44
2019-06-20T00:25:57.552Z,19.43
2019-06-20T00:26:57.509Z,19.44
2019-06-20T00:27:57.522Z,19.41
2019-06-20T00:28:57.528Z,19.33
2019-06-20T00:29:57.818Z,19.40
2019-06-20T00:30:57.554Z,19.36
2019-06-20T00:31:57.657Z,19.39
2019-06-20T00:32:57.588Z,19.32
2019-06-20T00:33:57.598Z,19.37
2019-06-20T00:34:57.657Z,19.36
2019-06-20T00:36:58.211Z,19.44
2019-06-20T00:38:57.959Z,19.43
2019-06-20T00:39:58.184Z,19.37
2019-06-20T00:40:57.785Z,19.43
2019-06-20T00:41:57.725Z,19.41
2019-06-20T00:42:57.771Z,19.40
2019-06-20T00:43:57.876Z,19.39
2019-06-20T00:44:57.775Z,19.46
2019-06-20T00:45:57.900Z,19.33
2019-06-20T00:46:57.844Z,19.40
2019-06-20T00:47:57.877Z,19.41
2019-06-20T00:48:57.842Z,19.28
2019-06-20T00:49:57.993Z,19.36
2019-06-20T00:50:57.870Z,19.31
2019-06-20T00:51:58.015Z,19.39
2019-06-20T00:52:57.947Z,19.28
2019-06-20T00:53:57.919Z,19.26
2019-06-20T00:54:57.932Z,19.26
2019-06-20T00:55:57.945Z,19.25
2019-06-20T00:56:58.023Z,19.21
2019-06-20T00:57:57.978Z,19.28
2019-06-20T00:58:57.988Z,19.32
2019-06-20T00:59:58.007Z,19.31
2019-06-20T01:00:58.021Z,19.28
2019-06-20T01:01:58.043Z,19.33
2019-06-20T01:02:58.059Z,19.32
2019-06-20T01:03:58.078Z,19.26
2019-06-20T01:04:58.088Z,19.19
2019-06-20T01:05:58.294Z,19.16
2019-06-20T01:06:58.155Z,19.18
2019-06-20T01:07:58.191Z,19.19
2019-06-20T01:08:58.378Z,19.14
2019-06-20T01:09:58.698Z,19.25
2019-06-20T01:11:58.350Z,19.28
2019-06-20T01:12:58.822Z,19.32
2019-06-20T01:13:58.328Z,19.40
2019-06-20T01:14:58.261Z,19.37
2019-06-20T01:15:58.293Z,19.28
2019-06-20T01:16:58.273Z,19.28
2019-06-20T01:17:58.286Z,19.23
2019-06-20T01:18:58.303Z,19.25
2019-06-20T01:20:58.347Z,19.28
2019-06-20T01:21:58.357Z,19.31
2019-06-20T01:22:58.365Z,19.31
2019-06-20T01:23:58.395Z,19.40
2019-06-20T01:24:58.402Z,19.31
2019-06-20T01:25:58.422Z,19.33
2019-06-20T01:26:58.431Z,19.33
2019-06-20T01:27:58.453Z,19.32
2019-06-20T01:28:58.496Z,19.32
2019-06-20T01:29:58.478Z,19.36
2019-06-20T01:30:58.501Z,19.36
2019-06-20T01:31:58.508Z,19.43
2019-06-20T01:32:58.523Z,19.47
2019-06-20T01:33:58.550Z,19.46
2019-06-20T01:34:58.615Z,19.44
2019-06-20T01:35:58.595Z,19.43
2019-06-20T01:36:58.611Z,19.44
2019-06-20T01:37:58.599Z,19.33
2019-06-20T01:38:58.612Z,19.36
2019-06-20T01:39:58.658Z,19.40
2019-06-20T01:40:58.764Z,19.32
2019-06-20T01:41:59.318Z,19.31
2019-06-20T01:44:58.890Z,19.29
2019-06-20T01:45:58.741Z,19.28
2019-06-20T01:46:58.744Z,19.31
2019-06-20T01:47:58.780Z,19.37
2019-06-20T01:48:58.797Z,19.28
2019-06-20T01:49:58.785Z,19.31
2019-06-20T01:50:58.809Z,19.28
2019-06-20T01:51:58.818Z,19.36
2019-06-20T01:52:58.854Z,19.29
2019-06-20T01:53:58.855Z,19.43
2019-06-20T01:54:58.869Z,19.41
2019-06-20T01:55:58.882Z,19.41
2019-06-20T01:56:58.895Z,19.41
2019-06-20T01:57:58.910Z,19.32
2019-06-20T01:58:58.970Z,19.26
2019-06-20T02:00:59.099Z,19.23
2019-06-20T02:01:58.995Z,19.21
2019-06-20T02:02:58.991Z,19.23
2019-06-20T02:03:59.044Z,19.16
2019-06-20T02:05:59.039Z,19.14
2019-06-20T02:06:59.052Z,19.11
2019-06-20T02:07:59.070Z,19.22
2019-06-20T02:08:59.135Z,19.25
2019-06-20T02:09:59.112Z,19.18
2019-06-20T02:10:59.249Z,19.14
2019-06-20T02:11:59.138Z,19.10
2019-06-20T02:12:59.145Z,19.14
2019-06-20T02:14:07.291Z,19.11
2019-06-20T02:14:59.252Z,19.14
2019-06-20T02:15:59.192Z,19.18
2019-06-20T02:16:59.249Z,19.26
2019-06-20T02:17:59.250Z,19.11
2019-06-20T02:18:59.495Z,19.16
2019-06-20T02:19:59.285Z,19.21
2019-06-20T02:20:59.384Z,19.18
2019-06-20T02:21:59.316Z,19.18
2019-06-20T02:22:59.310Z,19.22
2019-06-20T02:23:59.321Z,19.21
2019-06-20T02:24:59.338Z,19.18
2019-06-20T02:25:59.370Z,19.10
2019-06-20T02:26:59.365Z,19.08
2019-06-20T02:27:59.381Z,19.06
2019-06-20T02:28:59.653Z,19.02
2019-06-20T02:29:59.437Z,18.98
2019-06-20T02:30:59.439Z,19.02
2019-06-20T02:31:59.505Z,18.98
2019-06-20T02:32:59.676Z,19.10
2019-06-20T02:33:59.473Z,18.92
2019-06-20T02:35:59.503Z,18.90
2019-06-20T02:36:59.523Z,18.98
2019-06-20T02:37:59.570Z,18.87
2019-06-20T02:38:59.582Z,18.85
2019-06-20T02:39:59.569Z,18.91
2019-06-20T02:40:59.578Z,18.85
2019-06-20T02:41:59.666Z,18.90
2019-06-20T02:42:59.612Z,18.90
2019-06-20T02:43:59.635Z,18.84
2019-06-20T02:44:59.647Z,18.85
2019-06-20T02:45:59.703Z,18.85
2019-06-20T02:47:00.100Z,18.85
2019-06-20T02:48:00.370Z,18.81
2019-06-20T02:49:00.831Z,18.84
2019-06-20T02:50:00.425Z,18.84
2019-06-20T02:50:59.774Z,18.84
2019-06-20T02:51:59.802Z,18.84
2019-06-20T02:53:00.427Z,18.82
2019-06-20T02:54:00.132Z,18.90
2019-06-20T02:54:59.797Z,18.92
2019-06-20T02:55:59.822Z,18.87
2019-06-20T02:57:00.286Z,18.90
2019-06-20T02:57:59.851Z,18.87
2019-06-20T02:58:59.860Z,18.78
2019-06-20T02:59:59.872Z,18.76
2019-06-20T03:00:59.889Z,18.75
2019-06-20T03:01:59.950Z,18.81
2019-06-20T03:02:59.925Z,18.80
2019-06-20T03:03:59.982Z,18.76
2019-06-20T03:04:59.948Z,18.78
2019-06-20T03:05:59.966Z,18.69
2019-06-20T03:06:59.982Z,18.72
2019-06-20T03:08:00.499Z,18.75
2019-06-20T03:09:00.264Z,18.87
2019-06-20T03:10:00.043Z,18.73
2019-06-20T03:11:00.052Z,18.81
2019-06-20T03:12:00.106Z,18.76
2019-06-20T03:13:00.144Z,18.76
2019-06-20T03:14:00.090Z,18.76
2019-06-20T03:15:00.155Z,18.76
2019-06-20T03:16:00.122Z,18.82
2019-06-20T03:17:00.273Z,18.76
2019-06-20T03:19:01.114Z,18.67
2019-06-20T03:20:00.418Z,18.67
2019-06-20T03:21:00.861Z,18.78
2019-06-20T03:22:00.268Z,18.76
2019-06-20T03:24:00.292Z,18.73
2019-06-20T03:25:00.565Z,18.76
2019-06-20T03:26:00.321Z,18.75
2019-06-20T03:27:00.297Z,18.72
2019-06-20T03:28:00.420Z,18.76
2019-06-20T03:29:00.326Z,18.76
2019-06-20T03:31:00.362Z,18.87
2019-06-20T03:32:00.374Z,18.81
2019-06-20T03:33:00.393Z,18.84
2019-06-20T03:34:00.400Z,18.75
2019-06-20T03:35:00.445Z,18.78
2019-06-20T03:36:00.458Z,18.75
2019-06-20T03:37:00.449Z,18.76
2019-06-20T03:38:00.465Z,18.80
2019-06-20T03:39:00.539Z,18.85
2019-06-20T03:40:00.542Z,18.84
2019-06-20T03:41:00.648Z,18.92
2019-06-20T03:42:00.533Z,18.90
2019-06-20T03:43:00.561Z,18.95
2019-06-20T03:44:00.553Z,18.91
2019-06-20T03:45:02.488Z,18.88
2019-06-20T03:46:00.621Z,18.95
2019-06-20T03:47:00.754Z,19.06
2019-06-20T03:49:01.507Z,18.99
2019-06-20T03:50:00.812Z,18.85
2019-06-20T03:51:00.662Z,18.87
2019-06-20T03:52:00.737Z,18.94
2019-06-20T03:54:00.739Z,18.95
2019-06-20T03:55:00.901Z,18.84
2019-06-20T03:56:01.540Z,18.85
2019-06-20T03:58:00.882Z,18.94
2019-06-20T03:59:00.789Z,18.94
2019-06-20T04:00:01.039Z,18.82
2019-06-20T04:01:00.856Z,18.87
2019-06-20T04:02:01.034Z,18.88
2019-06-20T04:03:01.626Z,18.90
2019-06-20T04:04:00.869Z,18.90
2019-06-20T04:05:01.252Z,18.87
2019-06-20T04:06:00.922Z,18.95
2019-06-20T04:07:00.919Z,18.92
2019-06-20T04:08:00.928Z,19.02
2019-06-20T04:09:00.952Z,19.00
2019-06-20T04:10:01.176Z,18.88
2019-06-20T04:11:00.979Z,18.87
2019-06-20T04:12:01.043Z,18.95
2019-06-20T04:13:01.003Z,19.00
2019-06-20T04:14:02.009Z,18.94
2019-06-20T04:15:01.037Z,18.95
2019-06-20T04:16:01.070Z,19.04
2019-06-20T04:17:01.437Z,19.11
2019-06-20T04:18:01.169Z,19.08
2019-06-20T04:19:02.033Z,19.04
2019-06-20T04:21:01.126Z,19.11
2019-06-20T04:24:01.887Z,18.99
2019-06-20T04:25:01.395Z,19.08
2019-06-20T04:26:01.926Z,19.16
2019-06-20T04:27:01.229Z,19.18
2019-06-20T04:28:01.443Z,19.13
2019-06-20T04:29:01.368Z,19.23
2019-06-20T04:30:01.414Z,19.18
2019-06-20T04:31:01.357Z,19.19
2019-06-20T04:32:01.376Z,19.18
2019-06-20T04:33:01.507Z,19.26
2019-06-20T04:34:01.359Z,19.14
2019-06-20T04:35:01.350Z,19.21
2019-06-20T04:36:01.578Z,19.25
2019-06-20T04:37:01.403Z,19.18
2019-06-20T04:38:01.413Z,19.22
2019-06-20T04:39:01.591Z,19.28
2019-06-20T04:40:01.873Z,19.32
2019-06-20T04:41:01.437Z,19.28
2019-06-20T04:43:01.526Z,19.33
2019-06-20T04:44:01.574Z,19.29
2019-06-20T04:45:01.500Z,19.33
2019-06-20T04:46:01.508Z,19.37
2019-06-20T04:47:01.574Z,19.43
2019-06-20T04:48:01.546Z,19.37
2019-06-20T04:49:01.558Z,19.39
2019-06-20T04:50:01.607Z,19.46
2019-06-20T04:51:01.594Z,19.37
2019-06-20T04:52:01.658Z,19.43
2019-06-20T04:53:01.670Z,19.47
2019-06-20T04:54:01.645Z,19.48
2019-06-20T04:55:02.211Z,19.47
2019-06-20T04:56:05.408Z,19.46
2019-06-20T04:58:01.752Z,19.44
2019-06-20T04:59:01.844Z,19.50
2019-06-20T05:00:01.775Z,19.50
2019-06-20T05:03:02.222Z,19.47
2019-06-20T05:04:01.794Z,19.56
2019-06-20T05:05:01.810Z,19.48
2019-06-20T05:07:01.864Z,19.47
2019-06-20T05:08:01.899Z,19.41
2019-06-20T05:09:02.971Z,19.48
2019-06-20T05:10:02.090Z,19.56
2019-06-20T05:11:02.028Z,19.51
2019-06-20T05:12:02.081Z,19.61
2019-06-20T05:13:01.939Z,19.61
2019-06-20T05:14:03.033Z,19.73
2019-06-20T05:15:01.966Z,19.65
2019-06-20T05:17:02.007Z,19.65
2019-06-20T05:18:02.015Z,19.62
2019-06-20T05:19:03.923Z,19.63
2019-06-20T05:20:02.387Z,19.65
2019-06-20T05:21:02.134Z,19.69
2019-06-20T05:23:02.383Z,19.77
2019-06-20T05:24:03.582Z,19.66
2019-06-20T05:25:02.186Z,19.77
2019-06-20T05:26:03.029Z,19.76
2019-06-20T05:27:03.305Z,19.77
2019-06-20T05:29:05.332Z,19.69
2019-06-20T05:30:02.965Z,19.73
2019-06-20T05:33:02.253Z,19.61
2019-06-20T05:36:02.854Z,19.58
2019-06-20T05:37:02.354Z,19.71
2019-06-20T05:38:02.415Z,19.62
2019-06-20T05:39:02.338Z,19.65
2019-06-20T05:40:06.160Z,19.63
2019-06-20T05:42:04.049Z,19.62
2019-06-20T05:44:02.831Z,19.77
2019-06-20T05:45:06.994Z,19.68
2019-06-20T05:46:09.510Z,19.87
2019-06-20T05:47:12.420Z,19.88
2019-06-20T05:48:02.476Z,19.96
2019-06-20T05:49:02.875Z,19.95
2019-06-20T05:50:03.842Z,20.03
2019-06-20T05:51:04.699Z,20.01
2019-06-20T05:52:04.556Z,20.05
2019-06-20T05:53:02.726Z,20.16
2019-06-20T05:56:03.555Z,20.18
2019-06-20T05:58:03.781Z,20.17
2019-06-20T05:59:03.570Z,20.10
2019-06-20T06:01:03.179Z,20.05
2019-06-20T06:02:04.678Z,20.03
2019-06-20T06:04:03.179Z,20.01
2019-06-20T06:05:03.805Z,20.06
2019-06-20T06:06:03.281Z,20.10
2019-06-20T06:07:05.176Z,20.13
2019-06-20T06:08:04.242Z,20.14
2019-06-20T06:09:03.797Z,20.17
2019-06-20T06:10:05.390Z,20.33
2019-06-20T06:11:03.293Z,20.35
2019-06-20T06:12:03.096Z,20.32
2019-06-20T06:14:05.529Z,20.31
2019-06-20T06:15:06.417Z,20.33
2019-06-20T06:16:03.099Z,20.31
2019-06-20T06:17:04.783Z,20.28
2019-06-20T06:18:03.965Z,20.31
2019-06-20T06:19:03.104Z,20.29
2019-06-20T06:20:03.563Z,20.33
2019-06-20T06:21:03.181Z,20.32
2019-06-20T06:22:03.201Z,20.33
2019-06-20T06:23:04.120Z,20.35
2019-06-20T06:24:03.604Z,20.28
2019-06-20T06:25:05.005Z,20.14
2019-06-20T06:26:03.879Z,20.14
2019-06-20T06:27:03.799Z,20.11
2019-06-20T06:28:04.193Z,19.99
2019-06-20T06:29:04.288Z,20.06
2019-06-20T06:30:06.306Z,19.98
2019-06-20T06:32:03.952Z,19.94
2019-06-20T06:34:04.215Z,19.96
2019-06-20T06:35:05.727Z,19.99
2019-06-20T06:37:03.267Z,20.02
2019-06-20T06:38:03.256Z,20.05
2019-06-20T06:39:03.760Z,20.06
2019-06-20T06:40:06.247Z,20.13
2019-06-20T06:41:04.129Z,19.99
2019-06-20T06:42:04.093Z,20.01
2019-06-20T06:43:05.378Z,19.96
2019-06-20T06:44:04.483Z,19.91
2019-06-20T06:45:06.059Z,19.98
2019-06-20T06:46:04.055Z,19.96
2019-06-20T06:47:03.830Z,20.05
2019-06-20T06:48:04.329Z,19.99
2019-06-20T06:49:03.795Z,20.02
2019-06-20T06:50:05.550Z,20.18
2019-06-20T06:51:04.935Z,20.13
2019-06-20T06:52:04.664Z,20.28
2019-06-20T06:53:04.830Z,20.31
2019-06-20T06:54:04.287Z,20.26
2019-06-20T06:55:05.168Z,20.31
2019-06-20T06:56:05.294Z,20.42
2019-06-20T06:57:05.260Z,20.43
2019-06-20T06:58:04.494Z,20.38
2019-06-20T06:59:03.616Z,20.41
2019-06-20T07:00:04.089Z,20.50
2019-06-20T07:01:10.208Z,20.50
2019-06-20T07:02:04.337Z,20.50
2019-06-20T07:03:04.848Z,20.36
2019-06-20T07:04:05.561Z,20.31
2019-06-20T07:06:06.911Z,20.17
2019-06-20T07:07:05.125Z,20.02
2019-06-20T07:08:08.213Z,20.13
2019-06-20T07:09:08.235Z,20.20
2019-06-20T07:11:08.117Z,20.20
2019-06-20T07:12:07.243Z,20.29
2019-06-20T07:16:03.844Z,20.32
2019-06-20T07:17:03.864Z,20.32
2019-06-20T07:18:03.879Z,20.35
2019-06-20T07:20:03.896Z,20.47
2019-06-20T07:21:03.978Z,20.35
2019-06-20T07:22:07.401Z,20.36
2019-06-20T07:23:05.218Z,20.33
2019-06-20T07:24:03.967Z,20.41
2019-06-20T07:25:03.967Z,20.48
2019-06-20T07:26:04.825Z,20.48
2019-06-20T07:27:04.645Z,20.36
2019-06-20T07:28:04.808Z,20.52
2019-06-20T07:29:04.054Z,20.54
2019-06-20T07:30:04.042Z,20.59
2019-06-20T07:31:04.275Z,20.66
2019-06-20T07:32:04.242Z,20.62
2019-06-20T07:33:04.298Z,20.55
2019-06-20T07:34:08.223Z,20.55
2019-06-20T07:35:05.973Z,20.55
2019-06-20T07:36:04.541Z,20.57
2019-06-20T07:37:04.576Z,20.57
2019-06-20T07:38:04.236Z,20.54
2019-06-20T07:42:04.372Z,20.73
2019-06-20T07:43:04.257Z,20.72
2019-06-20T07:44:04.264Z,20.85
2019-06-20T07:45:04.290Z,20.87
2019-06-20T07:46:05.995Z,20.88
2019-06-20T07:47:17.189Z,20.97
2019-06-20T07:50:18.277Z,21.13
2019-06-20T07:51:09.053Z,21.13
2019-06-20T07:52:08.374Z,21.09
2019-06-20T07:53:10.077Z,21.10
2019-06-20T07:54:09.430Z,21.12
2019-06-20T07:55:04.480Z,21.24
2019-06-20T07:56:11.842Z,21.21
2019-06-20T07:57:09.284Z,21.04
2019-06-20T07:59:04.503Z,21.06
2019-06-20T08:00:04.528Z,21.09
2019-06-20T08:01:04.557Z,21.12
2019-06-20T08:02:04.572Z,21.12
2019-06-20T08:03:04.578Z,21.10
2019-06-20T08:04:04.596Z,21.13
2019-06-20T08:05:04.586Z,21.03
2019-06-20T08:06:04.737Z,21.10
2019-06-20T08:07:04.731Z,21.14
2019-06-20T08:09:05.122Z,21.31
2019-06-20T08:10:05.180Z,21.34
2019-06-20T08:11:05.148Z,21.32
2019-06-20T08:12:04.719Z,21.47
2019-06-20T08:13:04.715Z,21.35
2019-06-20T08:14:05.679Z,21.49
2019-06-20T08:15:14.468Z,21.28
2019-06-20T08:16:04.792Z,21.19
2019-06-20T08:17:04.860Z,20.97
2019-06-20T08:18:04.806Z,20.92
2019-06-20T08:19:04.831Z,20.97
2019-06-20T08:20:04.853Z,20.88
2019-06-20T08:21:04.914Z,20.84
2019-06-20T08:22:04.856Z,20.80
2019-06-20T08:23:04.900Z,20.82
2019-06-20T08:24:04.890Z,20.82
2019-06-20T08:25:05.382Z,20.74
2019-06-20T08:26:04.918Z,20.69
2019-06-20T08:27:05.031Z,20.61
2019-06-20T08:28:04.960Z,20.58
2019-06-20T08:29:18.583Z,20.58
2019-06-20T08:30:05.225Z,20.59
2019-06-20T08:31:04.996Z,20.54
2019-06-20T08:32:05.011Z,20.59
2019-06-20T08:33:11.737Z,20.59
2019-06-20T08:34:05.044Z,20.61
2019-06-20T08:35:06.433Z,20.66
2019-06-20T08:36:06.552Z,20.70
2019-06-20T08:37:06.386Z,20.66
2019-06-20T08:38:05.686Z,20.77
2019-06-20T08:39:06.489Z,20.73
2019-06-20T08:40:06.490Z,20.82
2019-06-20T08:41:06.398Z,20.76
2019-06-20T08:42:06.370Z,20.84
2019-06-20T08:43:06.268Z,20.91
2019-06-20T08:44:06.140Z,20.85
2019-06-20T08:45:06.109Z,20.92
2019-06-20T08:47:05.947Z,21.06
2019-06-20T08:48:05.267Z,21.21
2019-06-20T08:49:05.779Z,21.32
2019-06-20T08:50:06.085Z,21.42
2019-06-20T08:51:06.475Z,21.42
2019-06-20T08:52:05.603Z,21.49
2019-06-20T08:53:05.884Z,21.72
2019-06-20T08:54:05.507Z,21.79
2019-06-20T08:55:05.769Z,21.82
2019-06-20T08:56:05.570Z,21.80
2019-06-20T08:57:05.864Z,21.83
2019-06-20T08:58:05.723Z,22.00
2019-06-20T08:59:05.455Z,21.99
2019-06-20T09:03:05.495Z,22.39
2019-06-20T09:04:05.511Z,22.42
2019-06-20T09:05:05.534Z,22.62
2019-06-20T09:06:05.666Z,22.92
2019-06-20T09:07:05.578Z,23.04
2019-06-20T09:08:05.572Z,23.25
2019-06-20T09:09:05.606Z,23.17
2019-06-20T09:10:05.756Z,22.76
2019-06-20T09:11:05.634Z,22.82
2019-06-20T09:12:06.454Z,22.80
2019-06-20T09:13:05.653Z,22.85
2019-06-20T09:14:06.155Z,22.86
2019-06-20T09:15:06.689Z,22.80
2019-06-20T09:16:05.833Z,22.80
2019-06-20T09:17:06.674Z,22.68
2019-06-20T09:21:05.897Z,22.60
2019-06-20T09:22:06.711Z,22.40
2019-06-20T09:23:06.643Z,22.39
2019-06-20T09:24:06.873Z,22.35
2019-06-20T09:25:06.011Z,22.24
2019-06-20T09:26:05.870Z,22.25
2019-06-20T09:27:05.881Z,22.36
2019-06-20T09:28:05.893Z,22.42
2019-06-20T09:29:05.917Z,22.55
2019-06-20T09:30:05.940Z,22.65
2019-06-20T09:31:05.984Z,22.75
2019-06-20T09:32:05.957Z,22.97
2019-06-20T09:33:06.845Z,22.97
2019-06-20T09:34:06.069Z,23.00
2019-06-20T09:35:06.109Z,22.92
2019-06-20T09:36:06.106Z,22.88
2019-06-20T09:37:06.038Z,22.88
2019-06-20T09:38:06.318Z,22.75
2019-06-20T09:39:06.626Z,22.91
2019-06-20T09:40:06.091Z,22.92
2019-06-20T09:41:06.127Z,22.95
2019-06-20T09:42:06.146Z,23.01
2019-06-20T09:43:06.182Z,22.88
2019-06-20T09:44:06.183Z,22.77
2019-06-20T09:45:06.288Z,22.77
2019-06-20T09:46:06.231Z,22.73
2019-06-20T09:47:06.327Z,22.61
2019-06-20T09:50:07.082Z,23.12
2019-06-20T09:51:06.269Z,23.27
2019-06-20T09:52:06.641Z,23.40
2019-06-20T09:53:06.798Z,23.61
2019-06-20T09:54:06.445Z,23.54
2019-06-20T09:55:06.592Z,23.60
2019-06-20T09:56:06.767Z,23.50
2019-06-20T09:57:06.379Z,23.58
2019-06-20T09:58:06.416Z,23.27
2019-06-20T09:59:06.707Z,23.16
2019-06-20T10:00:10.414Z,23.12
2019-06-20T10:01:06.866Z,23.02
2019-06-20T10:02:06.470Z,23.10
2019-06-20T10:03:06.476Z,23.31
2019-06-20T10:04:06.484Z,23.40
2019-06-20T10:05:06.510Z,23.40
2019-06-20T10:06:13.922Z,23.43
2019-06-20T10:07:06.539Z,23.42
2019-06-20T10:08:06.548Z,23.20
2019-06-20T10:09:06.573Z,23.12
2019-06-20T10:10:06.583Z,23.05
2019-06-20T10:11:06.595Z,23.17
2019-06-20T10:12:06.613Z,23.09
2019-06-20T10:13:06.635Z,23.22
2019-06-20T10:14:06.689Z,23.27
2019-06-20T10:15:06.677Z,23.46
2019-06-20T10:16:06.683Z,23.51
2019-06-20T10:17:06.702Z,23.53
2019-06-20T10:18:06.706Z,23.51
2019-06-20T10:19:06.733Z,23.50
2019-06-20T10:20:06.748Z,23.68
2019-06-20T10:21:06.772Z,23.65
2019-06-20T10:22:06.786Z,23.70
2019-06-20T10:23:06.798Z,23.54
2019-06-20T10:24:06.865Z,23.53
2019-06-20T10:25:06.840Z,23.57
2019-06-20T10:26:07.194Z,23.61
2019-06-20T10:27:06.877Z,23.61
2019-06-20T10:28:06.912Z,23.70
2019-06-20T10:29:06.891Z,23.70
2019-06-20T10:30:14.366Z,23.68
2019-06-20T10:31:06.946Z,23.55
2019-06-20T10:32:06.943Z,23.61
2019-06-20T10:33:06.957Z,23.43
2019-06-20T10:34:06.986Z,23.22
2019-06-20T10:35:06.999Z,23.31
2019-06-20T10:36:07.045Z,23.40
2019-06-20T10:37:07.725Z,23.46
2019-06-20T10:38:07.078Z,23.70
2019-06-20T10:39:07.062Z,23.66
2019-06-20T10:40:07.124Z,23.68
2019-06-20T10:41:07.090Z,23.84
2019-06-20T10:42:07.120Z,23.97
2019-06-20T10:43:07.127Z,24.09
2019-06-20T10:44:07.144Z,24.25
2019-06-20T10:45:07.221Z,24.25
2019-06-20T10:46:07.168Z,24.16
2019-06-20T10:47:07.183Z,24.09
2019-06-20T10:48:07.210Z,24.15
2019-06-20T10:49:07.308Z,23.91
2019-06-20T10:50:07.249Z,24.10
2019-06-20T10:51:07.262Z,24.21
2019-06-20T10:52:07.467Z,24.00
2019-06-20T10:53:07.458Z,24.00
2019-06-20T10:54:07.296Z,24.08
2019-06-20T10:55:07.345Z,24.21
2019-06-20T10:56:07.336Z,24.47
2019-06-20T10:57:07.370Z,24.52
2019-06-20T10:58:07.424Z,24.65
2019-06-20T10:59:07.394Z,24.68
2019-06-20T11:00:08.231Z,24.69
2019-06-20T11:01:07.472Z,24.68
2019-06-20T11:02:07.530Z,24.67
2019-06-20T11:04:07.489Z,24.85
2019-06-20T11:05:07.515Z,24.83
2019-06-20T11:06:07.514Z,24.67
2019-06-20T11:07:07.617Z,24.57
2019-06-20T11:08:07.535Z,24.71
2019-06-20T11:09:07.589Z,24.65
2019-06-20T11:10:07.615Z,24.78
2019-06-20T11:11:07.597Z,25.08
2019-06-20T11:12:07.637Z,25.18
2019-06-20T11:13:07.617Z,25.47
2019-06-20T11:14:07.635Z,25.39
2019-06-20T11:15:07.759Z,25.57
2019-06-20T11:16:07.782Z,25.45
2019-06-20T11:17:07.915Z,25.39
2019-06-20T11:18:08.303Z,25.20
2019-06-20T11:19:07.718Z,25.27
2019-06-20T11:20:07.741Z,25.39
2019-06-20T11:21:07.801Z,25.35
2019-06-20T11:22:07.852Z,25.15
2019-06-20T11:23:07.789Z,25.45
2019-06-20T11:24:07.821Z,25.54
2019-06-20T11:25:07.886Z,25.55
2019-06-20T11:26:07.845Z,25.46
2019-06-20T11:27:07.947Z,25.24
2019-06-20T11:29:08.992Z,25.15
2019-06-20T11:30:10.947Z,25.30
2019-06-20T11:31:07.957Z,25.51
2019-06-20T11:32:07.953Z,25.64
2019-06-20T11:33:07.984Z,25.62
2019-06-20T11:34:08.056Z,25.72
2019-06-20T11:35:08.010Z,25.82
2019-06-20T11:36:08.054Z,25.92
2019-06-20T11:37:08.276Z,25.79
2019-06-20T11:38:08.108Z,25.75
2019-06-20T11:39:08.071Z,25.65
2019-06-20T11:40:08.158Z,25.47
2019-06-20T11:41:08.130Z,25.27
2019-06-20T11:42:08.251Z,25.09
2019-06-20T11:43:08.216Z,25.06
2019-06-20T11:44:08.321Z,25.18
2019-06-20T11:45:08.216Z,25.28
2019-06-20T11:46:08.196Z,25.18
2019-06-20T11:47:08.218Z,25.13
2019-06-20T11:48:08.554Z,25.03
2019-06-20T11:49:08.247Z,24.93
2019-06-20T11:51:08.341Z,24.81
2019-06-20T11:53:08.340Z,24.69
2019-06-20T11:54:08.470Z,24.50
2019-06-20T11:55:08.612Z,24.52
2019-06-20T11:56:08.441Z,24.53
2019-06-20T11:57:08.392Z,24.52
2019-06-20T11:58:09.117Z,24.78
2019-06-20T11:59:08.439Z,24.78
2019-06-20T12:00:08.846Z,24.76
2019-06-20T12:01:08.460Z,24.90
2019-06-20T12:02:08.746Z,24.84
2019-06-20T12:03:08.506Z,24.80
2019-06-20T12:04:09.481Z,24.85
2019-06-20T12:05:08.952Z,24.91
2019-06-20T12:06:08.557Z,24.96
2019-06-20T12:07:08.579Z,25.14
2019-06-20T12:08:08.620Z,25.18
2019-06-20T12:09:08.611Z,25.20
2019-06-20T12:10:09.620Z,24.91
2019-06-20T12:11:08.647Z,24.87
2019-06-20T12:12:10.095Z,24.83
2019-06-20T12:13:08.677Z,24.84
2019-06-20T12:14:08.803Z,24.96
2019-06-20T12:15:08.710Z,25.02
2019-06-20T12:16:08.716Z,25.21
2019-06-20T12:17:08.726Z,25.43
2019-06-20T12:18:08.752Z,25.50
2019-06-20T12:19:08.763Z,25.64
2019-06-20T12:20:09.830Z,25.65
2019-06-20T12:21:08.802Z,25.55
2019-06-20T12:22:08.815Z,24.95
2019-06-20T12:23:08.838Z,24.71
2019-06-20T12:24:08.908Z,24.55
2019-06-20T12:25:08.870Z,24.78
2019-06-20T12:26:08.880Z,24.85
2019-06-20T12:27:08.954Z,24.95
2019-06-20T12:28:09.101Z,25.05
2019-06-20T12:29:08.939Z,25.10
2019-06-20T12:30:08.974Z,24.78
2019-06-20T12:31:18.905Z,24.57
2019-06-20T12:32:10.050Z,24.28
2019-06-20T12:33:09.034Z,24.39
2019-06-20T12:34:09.026Z,24.39
2019-06-20T12:35:09.043Z,24.46
2019-06-20T12:36:09.064Z,24.67
2019-06-20T12:37:09.481Z,24.80
2019-06-20T12:38:09.707Z,24.84
2019-06-20T12:39:09.176Z,24.93
2019-06-20T12:40:09.167Z,25.46
2019-06-20T12:42:09.164Z,25.55
2019-06-20T12:43:09.296Z,25.32
2019-06-20T12:44:09.256Z,25.32
2019-06-20T12:45:09.666Z,25.14
2019-06-20T12:46:09.283Z,25.00
2019-06-20T12:47:09.255Z,24.95
2019-06-20T12:48:09.283Z,25.03
2019-06-20T12:49:09.286Z,25.18
2019-06-20T12:50:09.331Z,25.43
2019-06-20T12:51:09.325Z,25.30
2019-06-20T12:52:09.339Z,24.84
2019-06-20T12:53:09.367Z,24.55
2019-06-20T12:55:09.400Z,24.35
2019-06-20T12:56:09.485Z,24.42
2019-06-20T12:57:09.430Z,24.30
2019-06-20T12:58:09.596Z,24.37
2019-06-20T13:00:09.817Z,24.42
2019-06-20T13:01:09.515Z,24.88
2019-06-20T13:02:09.524Z,24.81
2019-06-20T13:03:09.668Z,24.68
2019-06-20T13:04:09.572Z,24.52
2019-06-20T13:05:09.579Z,24.46
2019-06-20T13:06:09.608Z,24.55
2019-06-20T13:07:09.699Z,24.61
2019-06-20T13:08:09.664Z,24.78
2019-06-20T13:09:09.640Z,24.83
2019-06-20T13:10:09.662Z,24.96
2019-06-20T13:11:09.771Z,25.17
2019-06-20T13:12:09.757Z,25.36
2019-06-20T13:13:09.972Z,25.97
2019-06-20T13:14:10.235Z,25.87
2019-06-20T13:15:09.792Z,25.75
2019-06-20T13:16:09.763Z,25.50
2019-06-20T13:17:09.916Z,25.24
2019-06-20T13:18:09.903Z,25.06
2019-06-20T13:19:09.876Z,24.98
2019-06-20T13:20:10.045Z,24.87
2019-06-20T13:21:09.916Z,24.78
2019-06-20T13:23:09.899Z,24.45
2019-06-20T13:24:09.915Z,24.25
2019-06-20T13:25:09.945Z,24.34
2019-06-20T13:26:09.945Z,24.18
2019-06-20T13:27:10.018Z,24.08
2019-06-20T13:28:09.987Z,24.06
2019-06-20T13:29:09.991Z,24.03
2019-06-20T13:30:10.039Z,23.98
2019-06-20T13:31:10.046Z,24.12
2019-06-20T13:32:10.345Z,24.20
2019-06-20T13:34:10.113Z,24.27
2019-06-20T13:35:10.123Z,24.24
2019-06-20T13:36:10.123Z,24.20
2019-06-20T13:37:10.177Z,24.12
2019-06-20T13:38:10.157Z,23.97
2019-06-20T13:39:10.165Z,23.73
2019-06-20T13:40:10.189Z,23.73
2019-06-20T13:41:10.204Z,23.65
2019-06-20T13:42:10.213Z,23.55
2019-06-20T13:43:10.408Z,23.55
2019-06-20T13:44:10.398Z,23.40
2019-06-20T13:45:13.225Z,23.36
2019-06-20T13:46:10.269Z,23.35
2019-06-20T13:47:10.294Z,23.46
2019-06-20T13:48:10.791Z,23.58
2019-06-20T13:49:10.351Z,23.60
2019-06-20T13:50:10.426Z,23.61
2019-06-20T13:51:10.528Z,23.69
2019-06-20T13:52:10.372Z,23.60
2019-06-20T13:53:10.458Z,23.65
2019-06-20T13:54:11.086Z,23.80
2019-06-20T13:56:10.437Z,25.06
2019-06-20T13:57:10.691Z,25.10
2019-06-20T13:58:10.532Z,24.84
2019-06-20T13:59:10.536Z,24.58
2019-06-20T14:00:10.602Z,24.40
2019-06-20T14:01:10.544Z,24.40
2019-06-20T14:02:10.575Z,24.22
2019-06-20T14:03:10.675Z,24.13
2019-06-20T14:04:10.572Z,23.83
2019-06-20T14:06:10.647Z,23.54
2019-06-20T14:07:10.675Z,23.54
2019-06-20T14:08:10.688Z,23.54
2019-06-20T14:09:10.905Z,23.61